createdAt,value
2023-04-18T00:00:12.334Z,14.22
2023-04-18T00:02:39.984Z,14.21
2023-04-18T00:05:08.519Z,14.22
2023-04-18T00:07:35.599Z,14.21
2023-04-18T00:10:03.233Z,14.19
2023-04-18T00:12:30.192Z,14.17
2023-04-18T00:14:58.671Z,14.17
2023-04-18T00:17:28.632Z,14.21
2023-04-18T00:19:56.310Z,14.26
2023-04-18T00:22:23.304Z,14.28
2023-04-18T00:24:51.059Z,14.31
2023-04-18T00:27:18.562Z,14.38
2023-04-18T00:29:45.445Z,14.43
2023-04-18T00:32:14.370Z,14.49
2023-04-18T00:34:41.502Z,14.52
2023-04-18T00:37:08.531Z,14.52
2023-04-18T00:39:36.338Z,14.50
2023-04-18T00:42:03.996Z,14.42
2023-04-18T00:44:31.536Z,14.35
2023-04-18T00:46:58.491Z,14.28
2023-04-18T00:49:27.920Z,14.16
2023-04-18T00:51:56.532Z,14.06
2023-04-18T00:54:26.495Z,13.97
2023-04-18T00:56:53.782Z,13.93
2023-04-18T00:59:22.155Z,13.91
2023-04-18T01:01:49.207Z,13.85
2023-04-18T01:04:17.203Z,13.84
2023-04-18T01:06:45.855Z,13.78
2023-04-18T01:09:13.990Z,13.77
2023-04-18T01:11:41.057Z,13.78
2023-04-18T01:14:08.741Z,13.81
2023-04-18T01:16:36.960Z,13.82
2023-04-18T01:19:05.661Z,13.77
2023-04-18T01:21:37.380Z,13.70
2023-04-18T01:24:12.017Z,13.69
2023-04-18T01:26:39.791Z,13.70
2023-04-18T01:29:06.989Z,13.62
2023-04-18T01:31:36.048Z,13.61
2023-04-18T01:34:03.661Z,13.60
2023-04-18T01:36:31.685Z,13.60
2023-04-18T01:38:58.781Z,13.63
2023-04-18T01:41:29.652Z,13.66
2023-04-18T01:43:56.578Z,13.74
2023-04-18T01:46:24.748Z,13.76
2023-04-18T01:48:51.724Z,13.76
2023-04-18T01:51:18.668Z,13.78
2023-04-18T01:53:45.555Z,13.79
2023-04-18T01:56:12.592Z,13.76
2023-04-18T01:58:41.620Z,13.72
2023-04-18T02:01:08.782Z,13.67
2023-04-18T02:03:35.849Z,13.63
2023-04-18T02:06:04.594Z,13.60
2023-04-18T02:08:35.352Z,13.53
2023-04-18T02:11:02.341Z,13.55
2023-04-18T02:13:29.363Z,13.60
2023-04-18T02:15:57.643Z,13.57
2023-04-18T02:18:25.388Z,13.57
2023-04-18T02:20:52.592Z,13.61
2023-04-18T02:23:19.768Z,13.63
2023-04-18T02:25:46.671Z,13.66
2023-04-18T02:28:13.745Z,13.65
2023-04-18T02:30:40.662Z,13.65
2023-04-18T02:33:08.948Z,13.64
2023-04-18T02:35:38.589Z,13.64
2023-04-18T02:38:05.655Z,13.66
2023-04-18T02:40:32.610Z,13.65
2023-04-18T02:42:59.561Z,13.61
2023-04-18T02:45:26.478Z,13.60
2023-04-18T02:47:55.962Z,13.63
2023-04-18T02:50:25.265Z,13.67
2023-04-18T02:52:52.202Z,13.65
2023-04-18T02:55:19.434Z,13.66
2023-04-18T02:57:46.360Z,13.70
2023-04-18T03:00:14.664Z,13.73
2023-04-18T03:02:41.849Z,13.74
2023-04-18T03:05:09.306Z,13.79
2023-04-18T03:07:37.522Z,13.80
2023-04-18T03:10:05.842Z,13.71
2023-04-18T03:12:32.893Z,13.65
2023-04-18T03:14:59.769Z,13.64
2023-04-18T03:17:26.949Z,13.63
2023-04-18T03:19:53.971Z,13.58
2023-04-18T03:22:20.942Z,13.60
2023-04-18T03:24:49.121Z,13.62
2023-04-18T03:27:16.063Z,13.59
2023-04-18T03:29:43.033Z,13.55
2023-04-18T03:32:09.907Z,13.45
2023-04-18T03:34:36.846Z,13.45
2023-04-18T03:37:03.705Z,13.46
2023-04-18T03:39:30.610Z,13.45
2023-04-18T03:41:58.800Z,13.43
2023-04-18T03:44:25.758Z,13.45
2023-04-18T03:46:54.012Z,13.42
2023-04-18T03:49:20.907Z,13.40
2023-04-18T03:51:48.111Z,13.39
2023-04-18T03:54:15.948Z,13.41
2023-04-18T03:56:43.427Z,13.40
2023-04-18T03:59:12.223Z,13.40
2023-04-18T04:01:39.433Z,13.44
2023-04-18T04:04:06.713Z,13.42
2023-04-18T04:06:33.717Z,13.33
2023-04-18T04:09:00.903Z,13.25
2023-04-18T04:11:27.806Z,13.20
2023-04-18T04:13:54.676Z,13.20
2023-04-18T04:16:22.927Z,13.20
2023-04-18T04:18:50.012Z,13.25
2023-04-18T04:21:17.304Z,13.29
2023-04-18T04:23:46.123Z,13.29
2023-04-18T04:26:15.040Z,13.29
2023-04-18T04:28:42.837Z,13.26
2023-04-18T04:31:10.326Z,13.18
2023-04-18T04:33:38.943Z,13.09
2023-04-18T04:36:08.808Z,13.10
2023-04-18T04:38:38.304Z,13.08
2023-04-18T04:41:06.747Z,13.10
2023-04-18T04:43:33.705Z,13.12
2023-04-18T04:46:02.799Z,13.09
2023-04-18T04:48:29.834Z,12.99
2023-04-18T04:50:59.954Z,12.91
2023-04-18T04:53:32.083Z,12.93
2023-04-18T04:55:59.152Z,12.94
2023-04-18T04:58:26.687Z,12.93
2023-04-18T05:00:53.979Z,12.99
2023-04-18T05:03:21.282Z,13.06
2023-04-18T05:05:48.516Z,13.07
2023-04-18T05:08:16.890Z,13.13
2023-04-18T05:10:44.407Z,13.09
2023-04-18T05:13:11.617Z,13.14
2023-04-18T05:15:39.686Z,13.19
2023-04-18T05:18:06.753Z,13.17
2023-04-18T05:20:33.743Z,13.23
2023-04-18T05:23:00.896Z,13.27
2023-04-18T05:25:29.790Z,13.28
2023-04-18T05:27:57.002Z,13.24
2023-04-18T05:30:23.954Z,13.20
2023-04-18T05:32:50.876Z,13.18
2023-04-18T05:35:18.058Z,13.24
2023-04-18T05:37:44.970Z,13.08
2023-04-18T05:40:13.493Z,13.03
2023-04-18T05:42:41.768Z,12.99
2023-04-18T05:45:09.440Z,12.98
2023-04-18T05:47:36.414Z,13.06
2023-04-18T05:50:04.076Z,13.16
2023-04-18T05:52:31.806Z,13.18
2023-04-18T05:54:58.721Z,13.13
2023-04-18T05:57:25.936Z,13.17
2023-04-18T05:59:54.209Z,13.22
2023-04-18T06:02:21.543Z,13.26
2023-04-18T06:04:48.906Z,13.37
2023-04-18T06:07:16.330Z,13.42
2023-04-18T06:09:43.359Z,13.50
2023-04-18T06:12:10.707Z,13.56
2023-04-18T06:14:37.559Z,13.61
2023-04-18T06:17:07.230Z,13.69
2023-04-18T06:19:34.141Z,13.76
2023-04-18T06:22:01.472Z,13.82
2023-04-18T06:24:30.139Z,13.85
2023-04-18T06:26:58.220Z,13.89
2023-04-18T06:29:28.299Z,13.90
2023-04-18T06:31:55.456Z,13.86
2023-04-18T06:34:23.736Z,13.84
2023-04-18T06:36:50.944Z,13.84
2023-04-18T06:39:17.846Z,13.82
2023-04-18T06:41:44.756Z,13.69
2023-04-18T06:44:11.617Z,13.60
2023-04-18T06:46:38.584Z,13.65
2023-04-18T06:49:05.724Z,13.67
2023-04-18T06:51:34.149Z,13.75
2023-04-18T06:54:01.881Z,13.81
2023-04-18T06:56:29.923Z,13.90
2023-04-18T06:58:57.218Z,13.95
2023-04-18T07:01:24.149Z,14.01
2023-04-18T07:03:51.247Z,14.10
2023-04-18T07:06:18.661Z,14.19
2023-04-18T07:08:46.954Z,14.11
2023-04-18T07:11:14.024Z,14.09
2023-04-18T07:13:40.975Z,14.10
2023-04-18T07:16:09.785Z,14.07
2023-04-18T07:18:38.318Z,14.07
2023-04-18T07:21:07.485Z,14.11
2023-04-18T07:23:34.875Z,14.24
2023-04-18T07:26:03.584Z,14.46
2023-04-18T07:28:32.448Z,14.93
2023-04-18T07:31:01.096Z,15.54
2023-04-18T07:33:31.496Z,16.28
2023-04-18T07:35:58.557Z,16.98
2023-04-18T07:38:25.535Z,17.87
2023-04-18T07:40:57.543Z,18.44
2023-04-18T07:43:26.815Z,19.34
2023-04-18T07:45:53.986Z,20.33
2023-04-18T07:48:22.399Z,21.27
2023-04-18T07:50:49.683Z,22.00
2023-04-18T07:53:17.030Z,22.44
2023-04-18T07:55:44.288Z,22.94
2023-04-18T07:58:11.209Z,23.62
2023-04-18T08:00:42.269Z,24.00
2023-04-18T08:03:12.660Z,24.44
2023-04-18T08:05:40.370Z,24.82
2023-04-18T08:08:09.279Z,25.24
2023-04-18T08:10:36.298Z,25.56
2023-04-18T08:13:03.784Z,25.75
2023-04-18T08:15:32.430Z,25.73
2023-04-18T08:18:01.850Z,25.69
2023-04-18T08:20:28.988Z,25.85
2023-04-18T08:25:27.126Z,26.02
2023-04-18T08:27:54.012Z,26.19
2023-04-18T08:30:21.234Z,25.90
2023-04-18T08:32:49.382Z,26.03
2023-04-18T08:35:17.757Z,26.28
2023-04-18T08:37:44.684Z,26.36
2023-04-18T08:40:11.819Z,26.63
2023-04-18T08:42:40.865Z,26.83
2023-04-18T08:45:09.777Z,27.02
2023-04-18T08:47:37.012Z,27.35
2023-04-18T08:50:04.835Z,27.64
2023-04-18T08:52:36.124Z,27.96
2023-04-18T08:55:03.784Z,28.07
2023-04-18T08:57:31.721Z,27.46
2023-04-18T09:00:01.675Z,27.04
2023-04-18T09:02:44.686Z,27.12
2023-04-18T09:05:14.985Z,27.24
2023-04-18T09:07:43.434Z,27.38
2023-04-18T09:10:12.428Z,27.39
2023-04-18T09:12:50.254Z,27.44
2023-04-18T09:15:20.685Z,27.16
2023-04-18T09:17:50.993Z,26.95
2023-04-18T09:20:35.180Z,26.80
2023-04-18T09:23:05.796Z,27.09
2023-04-18T09:25:41.959Z,27.47
2023-04-18T09:28:23.696Z,28.26
2023-04-18T09:30:52.570Z,28.85
2023-04-18T09:33:32.377Z,29.40
2023-04-18T09:36:21.409Z,28.93
2023-04-18T09:38:55.342Z,28.03
2023-04-18T09:41:23.703Z,27.06
2023-04-18T09:44:08.793Z,26.67
2023-04-18T09:46:36.664Z,27.30
2023-04-18T09:49:03.684Z,28.35
2023-04-18T09:51:33.294Z,29.52
2023-04-18T09:54:04.955Z,30.41
2023-04-18T09:56:37.150Z,31.11
2023-04-18T09:59:09.196Z,31.76
2023-04-18T10:01:36.925Z,32.28
2023-04-18T10:04:06.611Z,32.63
2023-04-18T10:06:39.490Z,32.23
2023-04-18T10:09:09.840Z,31.46
2023-04-18T10:11:37.109Z,31.66
2023-04-18T10:14:11.456Z,31.67
2023-04-18T10:16:39.491Z,31.64
2023-04-18T10:19:25.137Z,31.22
2023-04-18T10:21:54.127Z,31.24
2023-04-18T10:24:49.405Z,30.02
2023-04-18T10:27:17.034Z,28.93
2023-04-18T10:29:47.704Z,28.05
2023-04-18T10:32:15.291Z,28.18
2023-04-18T10:34:42.447Z,28.61
2023-04-18T10:37:09.700Z,29.52
2023-04-18T10:39:58.299Z,30.59
2023-04-18T10:42:59.028Z,31.34
2023-04-18T10:45:28.434Z,31.37
2023-04-18T10:48:24.040Z,30.78
2023-04-18T10:51:13.251Z,29.54
2023-04-18T10:53:47.905Z,28.52
2023-04-18T10:56:16.651Z,27.65
2023-04-18T10:58:50.403Z,27.64
2023-04-18T11:01:27.484Z,28.00
2023-04-18T11:03:57.110Z,28.55
2023-04-18T11:06:28.792Z,28.75
2023-04-18T11:09:10.215Z,27.98
2023-04-18T11:11:38.670Z,27.69
2023-04-18T11:14:05.792Z,26.99
2023-04-18T11:16:34.278Z,26.21
2023-04-18T11:19:17.112Z,26.27
2023-04-18T11:21:44.097Z,26.70
2023-04-18T11:24:11.260Z,26.51
2023-04-18T11:26:39.785Z,26.76
2023-04-18T11:29:06.787Z,27.01
2023-04-18T11:31:33.958Z,26.80
2023-04-18T11:34:02.360Z,26.31
2023-04-18T11:36:29.350Z,25.78
2023-04-18T11:38:56.644Z,25.48
2023-04-18T11:41:23.755Z,25.09
2023-04-18T11:43:51.989Z,24.66
2023-04-18T11:46:18.958Z,24.15
2023-04-18T11:48:46.589Z,23.51
2023-04-18T11:51:34.353Z,22.88
2023-04-18T11:54:01.452Z,22.63
2023-04-18T11:56:28.637Z,22.19
2023-04-18T11:58:57.015Z,22.07
2023-04-18T12:01:27.031Z,21.97
2023-04-18T12:04:02.414Z,22.34
2023-04-18T12:06:48.387Z,22.56
2023-04-18T12:09:16.068Z,22.43
2023-04-18T12:11:43.375Z,22.63
2023-04-18T12:14:21.547Z,22.63
2023-04-18T12:16:49.694Z,22.49
2023-04-18T12:19:17.069Z,22.45
2023-04-18T12:21:56.685Z,22.44
2023-04-18T12:24:25.073Z,22.33
2023-04-18T12:26:52.909Z,22.29
2023-04-18T12:29:21.306Z,22.09
2023-04-18T12:31:48.334Z,21.94
2023-04-18T12:34:15.660Z,21.81
2023-04-18T12:36:42.893Z,21.81
2023-04-18T12:39:10.291Z,21.80
2023-04-18T12:41:37.499Z,21.56
2023-04-18T12:44:04.991Z,21.50
2023-04-18T12:46:33.352Z,21.40
2023-04-18T12:49:00.771Z,21.37
2023-04-18T12:51:27.990Z,21.62
2023-04-18T12:53:54.922Z,21.57
2023-04-18T12:56:21.976Z,21.95
2023-04-18T12:58:49.543Z,22.33
2023-04-18T13:01:17.054Z,22.52
2023-04-18T13:03:48.739Z,22.43
2023-04-18T13:06:20.622Z,22.23
2023-04-18T13:08:47.682Z,22.11
2023-04-18T13:11:14.892Z,21.78
2023-04-18T13:13:41.989Z,21.70
2023-04-18T13:16:09.030Z,21.65
2023-04-18T13:18:36.331Z,21.70
2023-04-18T13:21:04.873Z,21.66
2023-04-18T13:23:31.825Z,21.65
2023-04-18T13:25:58.851Z,21.57
2023-04-18T13:28:25.973Z,21.97
2023-04-18T13:30:52.943Z,22.23
2023-04-18T13:33:20.692Z,22.32
2023-04-18T13:35:48.415Z,22.32
2023-04-18T13:38:16.909Z,22.39
2023-04-18T13:40:43.907Z,22.19
2023-04-18T13:43:13.153Z,21.99
2023-04-18T13:45:40.392Z,21.74
2023-04-18T13:48:07.456Z,21.69
2023-04-18T13:50:34.633Z,21.61
2023-04-18T13:53:01.840Z,21.37
2023-04-18T13:55:30.291Z,21.25
2023-04-18T13:57:57.525Z,21.25
2023-04-18T14:00:24.945Z,21.29
2023-04-18T14:02:52.652Z,21.33
2023-04-18T14:05:19.862Z,21.32
2023-04-18T14:07:48.478Z,21.44
2023-04-18T14:10:15.589Z,21.50
2023-04-18T14:12:44.072Z,21.66
2023-04-18T14:15:11.862Z,21.79
2023-04-18T14:17:38.893Z,21.85
2023-04-18T14:20:08.542Z,21.96
2023-04-18T14:22:35.944Z,21.97
2023-04-18T14:25:03.075Z,22.05
2023-04-18T14:27:30.789Z,22.12
2023-04-18T14:30:00.089Z,22.02
2023-04-18T14:32:27.426Z,21.86
2023-04-18T14:34:54.314Z,21.66
2023-04-18T14:37:22.277Z,21.63
2023-04-18T14:39:49.480Z,21.55
2023-04-18T14:42:17.485Z,21.71
2023-04-18T14:44:44.593Z,21.78
2023-04-18T14:47:12.878Z,21.59
2023-04-18T14:49:39.805Z,21.44
2023-04-18T14:52:07.025Z,21.56
2023-04-18T14:54:34.061Z,21.98
2023-04-18T14:57:01.412Z,22.54
2023-04-18T14:59:28.732Z,22.67
2023-04-18T15:01:56.021Z,22.75
2023-04-18T15:04:24.683Z,22.81
2023-04-18T15:06:51.925Z,22.47
2023-04-18T15:09:18.869Z,22.10
2023-04-18T15:11:45.793Z,21.83
2023-04-18T15:14:13.285Z,22.04
2023-04-18T15:16:40.750Z,22.27
2023-04-18T15:19:08.048Z,22.46
2023-04-18T15:21:36.342Z,22.64
2023-04-18T15:24:03.638Z,22.72
2023-04-18T15:26:32.886Z,22.69
2023-04-18T15:29:02.986Z,22.85
2023-04-18T15:31:30.838Z,22.68
2023-04-18T15:33:58.387Z,22.53
2023-04-18T15:36:25.753Z,22.55
2023-04-18T15:38:54.129Z,22.88
2023-04-18T15:41:21.719Z,23.09
2023-04-18T15:43:49.113Z,23.33
2023-04-18T15:46:16.280Z,23.49
2023-04-18T15:48:46.148Z,23.24
2023-04-18T15:51:13.223Z,22.83
2023-04-18T15:53:40.199Z,22.51
2023-04-18T15:56:08.648Z,22.23
2023-04-18T15:58:35.641Z,22.01
2023-04-18T16:01:03.475Z,21.84
2023-04-18T16:03:30.749Z,21.67
2023-04-18T16:05:57.952Z,21.54
2023-04-18T16:08:25.022Z,21.43
2023-04-18T16:10:53.089Z,21.23
2023-04-18T16:13:21.378Z,21.08
2023-04-18T16:15:48.527Z,20.87
2023-04-18T16:18:15.837Z,20.69
2023-04-18T16:20:42.911Z,20.50
2023-04-18T16:23:09.876Z,20.30
2023-04-18T16:25:37.048Z,20.33
2023-04-18T16:28:04.631Z,20.75
2023-04-18T16:30:32.953Z,20.65
2023-04-18T16:32:59.959Z,20.64
2023-04-18T16:35:27.244Z,20.49
2023-04-18T16:37:54.330Z,20.51
2023-04-18T16:40:21.467Z,20.64
2023-04-18T16:42:48.366Z,20.67
2023-04-18T16:45:16.022Z,20.74
2023-04-18T16:47:44.382Z,20.81
2023-04-18T16:50:11.538Z,20.79
2023-04-18T16:52:38.807Z,20.62
2023-04-18T16:55:06.708Z,20.37
2023-04-18T16:57:36.794Z,20.08
2023-04-18T17:00:06.609Z,19.95
2023-04-18T17:02:33.780Z,19.75
2023-04-18T17:05:02.291Z,19.67
2023-04-18T17:07:30.299Z,19.59
2023-04-18T17:09:57.201Z,19.53
2023-04-18T17:12:24.361Z,19.50
2023-04-18T17:14:51.257Z,19.50
2023-04-18T17:17:18.231Z,19.53
2023-04-18T17:19:46.310Z,19.57
2023-04-18T17:22:14.679Z,19.47
2023-04-18T17:24:41.590Z,19.36
2023-04-18T17:27:08.811Z,19.25
2023-04-18T17:29:38.473Z,19.18
2023-04-18T17:32:09.201Z,19.08
2023-04-18T17:34:36.338Z,18.95
2023-04-18T17:37:03.371Z,18.81
2023-04-18T17:39:33.050Z,18.74
2023-04-18T17:42:00.954Z,18.74
2023-04-18T17:44:27.955Z,18.71
2023-04-18T17:46:54.948Z,18.66
2023-04-18T17:49:22.001Z,18.62
2023-04-18T17:51:49.026Z,18.53
2023-04-18T17:54:16.347Z,18.51
2023-04-18T17:56:45.421Z,18.47
2023-04-18T17:59:12.741Z,18.45
2023-04-18T18:01:40.225Z,18.39
2023-04-18T18:04:07.425Z,18.38
2023-04-18T18:06:34.565Z,18.29
2023-04-18T18:09:01.615Z,18.26
2023-04-18T18:11:28.662Z,18.24
2023-04-18T18:13:57.326Z,18.12
2023-04-18T18:16:24.963Z,18.07
2023-04-18T18:18:52.069Z,18.03
2023-04-18T18:21:19.254Z,18.00
2023-04-18T18:23:46.150Z,18.00
2023-04-18T18:26:13.055Z,17.96
2023-04-18T18:28:40.442Z,17.97
2023-04-18T18:31:12.079Z,17.96
2023-04-18T18:33:39.760Z,17.96
2023-04-18T18:36:07.319Z,17.98
2023-04-18T18:38:34.581Z,17.96
2023-04-18T18:41:03.631Z,17.96
2023-04-18T18:43:30.890Z,17.94
2023-04-18T18:45:57.828Z,17.94
2023-04-18T18:48:27.990Z,17.93
2023-04-18T18:50:56.397Z,17.94
2023-04-18T18:53:23.334Z,17.94
2023-04-18T18:55:51.321Z,17.97
2023-04-18T18:58:22.115Z,17.97
2023-04-18T19:00:49.282Z,17.96
2023-04-18T19:03:18.847Z,17.97
2023-04-18T19:05:47.442Z,17.89
2023-04-18T19:08:14.466Z,17.83
2023-04-18T19:10:41.742Z,17.79
2023-04-18T19:13:08.717Z,17.76
2023-04-18T19:15:39.120Z,17.71
2023-04-18T19:18:06.230Z,17.68
2023-04-18T19:20:33.234Z,17.69
2023-04-18T19:23:01.490Z,17.71
2023-04-18T19:25:28.402Z,17.65
2023-04-18T19:27:55.304Z,17.63
2023-04-18T19:30:22.357Z,17.62
2023-04-18T19:32:49.498Z,17.55
2023-04-18T19:35:16.989Z,17.47
2023-04-18T19:37:43.929Z,17.41
2023-04-18T19:40:13.979Z,17.41
2023-04-18T19:42:41.214Z,17.40
2023-04-18T19:45:11.179Z,17.37
2023-04-18T19:47:38.305Z,17.32
2023-04-18T19:50:07.443Z,17.28
2023-04-18T19:52:34.409Z,17.25
2023-04-18T19:55:01.535Z,17.19
2023-04-18T19:57:29.753Z,17.15
2023-04-18T19:59:56.725Z,17.06
2023-04-18T20:02:24.036Z,16.99
2023-04-18T20:04:51.373Z,16.92
2023-04-18T20:07:18.379Z,16.87
2023-04-18T20:09:45.512Z,16.82
2023-04-18T20:12:12.666Z,16.75
2023-04-18T20:14:40.867Z,16.67
2023-04-18T20:17:07.866Z,16.60
2023-04-18T20:19:34.914Z,16.50
2023-04-18T20:22:02.026Z,16.47
2023-04-18T20:24:31.573Z,16.44
2023-04-18T20:26:59.488Z,16.40
2023-04-18T20:29:27.388Z,16.33
2023-04-18T20:31:55.826Z,16.27
2023-04-18T20:34:23.231Z,16.26
2023-04-18T20:36:52.338Z,16.23
2023-04-18T20:39:19.674Z,16.17
2023-04-18T20:41:50.826Z,16.07
2023-04-18T20:44:22.065Z,16.02
2023-04-18T20:46:49.328Z,15.95
2023-04-18T20:49:17.861Z,15.87
2023-04-18T20:51:45.168Z,15.82
2023-04-18T20:54:12.542Z,15.79
2023-04-18T20:56:39.946Z,15.78
2023-04-18T20:59:09.009Z,15.76
2023-04-18T21:01:37.132Z,15.75
2023-04-18T21:04:05.096Z,15.73
2023-04-18T21:06:33.572Z,15.70
2023-04-18T21:09:00.759Z,15.64
2023-04-18T21:11:28.107Z,15.63
2023-04-18T21:13:55.455Z,15.56
2023-04-18T21:16:23.954Z,15.48
2023-04-18T21:18:51.358Z,15.39
2023-04-18T21:21:18.501Z,15.31
2023-04-18T21:23:46.904Z,15.29
2023-04-18T21:26:14.008Z,15.26
2023-04-18T21:28:58.619Z,15.20
2023-04-18T21:31:29.632Z,15.22
2023-04-18T21:33:58.774Z,15.23
2023-04-18T21:36:28.397Z,15.16
2023-04-18T21:38:59.059Z,15.13
2023-04-18T21:41:26.762Z,15.13
2023-04-18T21:43:53.996Z,15.14
2023-04-18T21:46:21.176Z,15.15
2023-04-18T21:48:48.793Z,15.17
2023-04-18T21:51:16.915Z,15.22
2023-04-18T21:53:44.137Z,15.24
2023-04-18T21:56:12.536Z,15.26
2023-04-18T21:58:39.516Z,15.28
2023-04-18T22:01:06.493Z,15.29
2023-04-18T22:03:34.479Z,15.31
2023-04-18T22:06:01.874Z,15.35
2023-04-18T22:08:29.392Z,15.38
2023-04-18T22:10:58.892Z,15.41
2023-04-18T22:13:34.610Z,15.40
2023-04-18T22:16:03.322Z,15.39
2023-04-18T22:18:33.972Z,15.39
2023-04-18T22:21:03.227Z,15.40
2023-04-18T22:23:30.846Z,15.37
2023-04-18T22:25:57.816Z,15.35
2023-04-18T22:28:25.060Z,15.32
2023-04-18T22:30:53.642Z,15.26
2023-04-18T22:33:20.641Z,15.19
2023-04-18T22:35:48.449Z,15.15
2023-04-18T22:38:15.796Z,15.09
2023-04-18T22:40:42.774Z,15.06
2023-04-18T22:43:09.817Z,15.03
2023-04-18T22:45:36.670Z,14.97
2023-04-18T22:48:11.199Z,14.91
2023-04-18T22:50:42.662Z,14.87
2023-04-18T22:53:10.178Z,14.83
2023-04-18T22:55:39.270Z,14.76
2023-04-18T22:58:06.830Z,14.67
2023-04-18T23:00:33.991Z,14.60
2023-04-18T23:03:01.176Z,14.57
2023-04-18T23:05:30.518Z,14.55
2023-04-18T23:07:59.575Z,14.49
2023-04-18T23:10:27.268Z,14.47
2023-04-18T23:12:54.213Z,14.47
2023-04-18T23:15:22.858Z,14.47
2023-04-18T23:17:52.146Z,14.45
2023-04-18T23:20:19.324Z,14.42
2023-04-18T23:22:49.963Z,14.41
2023-04-18T23:25:17.271Z,14.37
2023-04-18T23:27:44.221Z,14.34
2023-04-18T23:30:12.579Z,14.30
2023-04-18T23:32:39.660Z,14.29
2023-04-18T23:35:07.250Z,14.24
2023-04-18T23:37:34.205Z,14.19
2023-04-18T23:40:05.934Z,14.15
2023-04-18T23:42:35.844Z,14.15
2023-04-18T23:45:03.988Z,14.13
2023-04-18T23:47:32.592Z,14.06
2023-04-18T23:49:59.968Z,14.02
2023-04-18T23:52:27.174Z,14.02
2023-04-18T23:54:54.100Z,14.01
2023-04-18T23:57:22.284Z,13.97
2023-04-18T23:59:49.142Z,13.96
